createdAt,value
2023-02-25T00:00:38.435Z,101496.44
2023-02-25T00:02:42.042Z,101496.63
2023-02-25T00:04:45.772Z,101496.94
2023-02-25T00:06:49.596Z,101499.69
2023-02-25T00:08:54.363Z,101497.28
2023-02-25T00:10:59.504Z,101501.00
2023-02-25T00:13:17.459Z,101508.94
2023-02-25T00:15:24.855Z,101504.69
2023-02-25T00:17:29.287Z,101508.22
2023-02-25T00:19:33.192Z,101510.84
2023-02-25T00:21:36.739Z,101510.75
2023-02-25T00:23:41.354Z,101517.63
2023-02-25T00:25:46.335Z,101520.13
2023-02-25T00:27:50.061Z,101522.59
2023-02-25T00:29:54.191Z,101520.66
2023-02-25T00:31:59.893Z,101517.91
2023-02-25T00:34:04.762Z,101517.06
2023-02-25T00:36:10.617Z,101517.97
2023-02-25T00:38:16.274Z,101509.25
2023-02-25T00:40:22.803Z,101513.84
2023-02-25T00:42:26.291Z,101510.38
2023-02-25T00:44:29.888Z,101512.22
2023-02-25T00:46:34.351Z,101508.78
2023-02-25T00:48:40.012Z,101507.97
2023-02-25T00:50:43.900Z,101501.94
2023-02-25T00:52:47.825Z,101508.19
2023-02-25T00:54:52.323Z,101509.03
2023-02-25T00:56:55.860Z,101503.88
2023-02-25T00:59:00.840Z,101503.16
2023-02-25T01:01:05.065Z,101498.84
2023-02-25T01:03:09.005Z,101511.88
2023-02-25T01:05:14.258Z,101505.53
2023-02-25T01:07:18.346Z,101508.94
2023-02-25T01:09:22.553Z,101514.09
2023-02-25T01:11:29.777Z,101514.94
2023-02-25T01:14:07.052Z,101509.72
2023-02-25T01:16:21.646Z,101508.88
2023-02-25T01:18:29.485Z,101515.03
2023-02-25T01:20:40.332Z,101515.16
2023-02-25T01:22:45.840Z,101517.88
2023-02-25T01:24:50.215Z,101506.63
2023-02-25T01:27:13.581Z,101511.09
2023-02-25T01:32:53.055Z,101493.25
2023-02-25T01:34:58.611Z,101489.25
2023-02-25T01:37:05.738Z,101491.16
2023-02-25T01:39:10.593Z,101494.78
2023-02-25T01:41:16.470Z,101501.88
2023-02-25T01:43:20.496Z,101503.69
2023-02-25T01:45:36.852Z,101509.06
2023-02-25T01:47:42.122Z,101507.44
2023-02-25T01:49:48.567Z,101516.31
2023-02-25T01:52:02.772Z,101506.84
2023-02-25T01:54:21.240Z,101501.78
2023-02-25T01:56:32.346Z,101500.19
2023-02-25T01:58:38.082Z,101494.22
2023-02-25T02:00:46.111Z,101490.78
2023-02-25T02:02:55.039Z,101484.75
2023-02-25T02:04:58.874Z,101489.16
2023-02-25T02:07:04.379Z,101492.69
2023-02-25T02:09:16.686Z,101495.38
2023-02-25T02:11:28.961Z,101490.97
2023-02-25T02:13:38.601Z,101490.06
2023-02-25T02:15:53.610Z,101494.31
2023-02-25T02:18:05.056Z,101498.63
2023-02-25T02:20:16.578Z,101509.91
2023-02-25T02:22:28.352Z,101511.59
2023-02-25T02:25:16.076Z,101509.97
2023-02-25T02:27:32.883Z,101511.69
2023-02-25T02:30:15.370Z,101508.19
2023-02-25T02:32:35.075Z,101513.38
2023-02-25T02:34:50.682Z,101513.44
2023-02-25T02:37:06.107Z,101510.84
2023-02-25T02:39:16.907Z,101518.94
2023-02-25T02:41:34.372Z,101512.34
2023-02-25T02:43:53.144Z,101517.78
2023-02-25T02:46:05.174Z,101522.13
2023-02-25T02:48:19.332Z,101528.28
2023-02-25T02:50:36.083Z,101523.88
2023-02-25T02:52:46.839Z,101520.31
2023-02-25T02:54:58.724Z,101529.81
2023-02-25T02:57:03.728Z,101532.34
2023-02-25T02:59:12.613Z,101534.13
2023-02-25T03:01:21.140Z,101531.53
2023-02-25T03:03:37.397Z,101535.16
2023-02-25T03:05:48.605Z,101543.16
2023-02-25T03:08:01.709Z,101552.91
2023-02-25T03:10:09.603Z,101539.88
2023-02-25T03:12:16.052Z,101550.38
2023-02-25T03:14:19.371Z,101552.09
2023-02-25T03:16:32.926Z,101560.97
2023-02-25T03:18:50.498Z,101556.66
2023-02-25T03:20:57.699Z,101555.81
2023-02-25T03:23:15.781Z,101556.75
2023-02-25T03:25:22.289Z,101558.53
2023-02-25T03:27:34.842Z,101554.19
2023-02-25T03:29:48.543Z,101549.13
2023-02-25T03:32:00.690Z,101544.78
2023-02-25T03:34:15.161Z,101552.63
2023-02-25T03:36:26.066Z,101554.38
2023-02-25T03:38:34.612Z,101556.97
2023-02-25T03:40:39.801Z,101564.78
2023-02-25T03:42:49.051Z,101563.84
2023-02-25T03:45:05.251Z,101566.41
2023-02-25T03:47:13.790Z,101563.75
2023-02-25T03:49:24.696Z,101564.59
2023-02-25T03:51:37.024Z,101574.16
2023-02-25T03:53:44.654Z,101565.22
2023-02-25T03:55:53.465Z,101564.25
2023-02-25T03:58:00.223Z,101574.63
2023-02-25T04:00:19.560Z,101566.75
2023-02-25T04:02:27.140Z,101566.75
2023-02-25T04:04:45.707Z,101575.53
2023-02-25T04:06:49.803Z,101575.53
2023-02-25T04:08:57.368Z,101578.13
2023-02-25T04:11:02.721Z,101585.00
2023-02-25T04:13:07.420Z,101594.56
2023-02-25T04:15:14.157Z,101583.13
2023-02-25T04:17:19.762Z,101595.31
2023-02-25T04:19:24.280Z,101588.28
2023-02-25T04:21:33.003Z,101582.06
2023-02-25T04:23:36.931Z,101582.94
2023-02-25T04:25:40.577Z,101582.88
2023-02-25T04:27:44.503Z,101582.88
2023-02-25T04:29:53.858Z,101582.88
2023-02-25T04:31:58.769Z,101584.66
2023-02-25T04:34:02.927Z,101581.94
2023-02-25T04:36:08.393Z,101581.00
2023-02-25T04:38:14.794Z,101587.88
2023-02-25T04:40:25.283Z,101586.09
2023-02-25T04:42:28.508Z,101588.72
2023-02-25T04:44:32.423Z,101597.44
2023-02-25T04:46:45.666Z,101594.03
2023-02-25T04:48:50.840Z,101601.06
2023-02-25T04:50:56.063Z,101595.81
2023-02-25T04:53:03.027Z,101602.75
2023-02-25T04:55:10.996Z,101607.09
2023-02-25T04:57:14.658Z,101605.28
2023-02-25T04:59:18.402Z,101607.91
2023-02-25T05:01:22.296Z,101611.34
2023-02-25T05:03:29.134Z,101622.72
2023-02-25T05:05:33.244Z,101625.38
2023-02-25T05:07:36.458Z,101619.25
2023-02-25T05:09:43.523Z,101632.31
2023-02-25T05:11:51.128Z,101627.13
2023-02-25T05:14:00.204Z,101632.31
2023-02-25T05:16:08.704Z,101634.84
2023-02-25T05:18:12.301Z,101621.66
2023-02-25T05:20:16.127Z,101620.94
2023-02-25T05:22:19.572Z,101629.09
2023-02-25T05:24:24.001Z,101629.25
2023-02-25T05:26:29.215Z,101625.81
2023-02-25T05:28:34.638Z,101626.63
2023-02-25T05:30:40.005Z,101633.53
2023-02-25T05:32:47.180Z,101627.22
2023-02-25T05:34:50.561Z,101628.00
2023-02-25T05:36:54.007Z,101622.72
2023-02-25T05:39:02.792Z,101626.97
2023-02-25T05:41:07.145Z,101626.97
2023-02-25T05:43:11.843Z,101618.16
2023-02-25T05:45:19.349Z,101626.81
2023-02-25T05:47:23.111Z,101617.94
2023-02-25T05:49:27.029Z,101620.50
2023-02-25T05:51:31.982Z,101626.56
2023-02-25T05:53:38.355Z,101624.88
2023-02-25T05:55:44.001Z,101621.31
2023-02-25T05:57:47.347Z,101623.94
2023-02-25T05:59:51.406Z,101620.47
2023-02-25T06:01:56.115Z,101623.09
2023-02-25T06:04:00.155Z,101624.88
2023-02-25T06:06:03.425Z,101623.16
2023-02-25T06:08:07.361Z,101628.41
2023-02-25T06:10:12.278Z,101630.19
2023-02-25T06:12:15.650Z,101633.69
2023-02-25T06:14:19.353Z,101637.19
2023-02-25T06:16:26.161Z,101632.81
2023-02-25T06:18:37.144Z,101631.03
2023-02-25T06:20:40.551Z,101634.50
2023-02-25T06:22:44.545Z,101640.59
2023-02-25T06:24:48.501Z,101632.72
2023-02-25T06:26:52.118Z,101632.72
2023-02-25T06:28:55.782Z,101632.72
2023-02-25T06:30:59.348Z,101630.97
2023-02-25T06:33:02.909Z,101632.72
2023-02-25T06:35:09.015Z,101637.09
2023-02-25T06:37:15.000Z,101640.63
2023-02-25T06:39:19.844Z,101645.91
2023-02-25T06:41:24.168Z,101649.38
2023-02-25T06:43:27.672Z,101645.84
2023-02-25T06:45:31.001Z,101653.72
2023-02-25T06:47:34.653Z,101651.09
2023-02-25T06:49:38.212Z,101648.53
2023-02-25T06:51:42.965Z,101662.56
2023-02-25T06:53:47.763Z,101660.72
2023-02-25T06:55:51.449Z,101663.34
2023-02-25T06:57:55.852Z,101662.50
2023-02-25T06:59:59.201Z,101667.88
2023-02-25T07:02:02.743Z,101655.63
2023-02-25T07:04:06.394Z,101667.88
2023-02-25T07:06:10.104Z,101680.16
2023-02-25T07:08:15.027Z,101674.91
2023-02-25T07:10:18.859Z,101684.56
2023-02-25T07:12:22.156Z,101681.09
2023-02-25T07:14:25.404Z,101690.78
2023-02-25T07:16:30.071Z,101690.72
2023-02-25T07:18:33.420Z,101696.03
2023-02-25T07:20:39.283Z,101694.25
2023-02-25T07:22:43.299Z,101691.63
2023-02-25T07:24:47.995Z,101690.78
2023-02-25T07:26:51.260Z,101686.38
2023-02-25T07:28:54.820Z,101689.88
2023-02-25T07:30:58.202Z,101689.88
2023-02-25T07:33:02.944Z,101696.88
2023-02-25T07:35:07.168Z,101699.50
2023-02-25T07:37:10.468Z,101707.38
2023-02-25T07:39:14.061Z,101703.06
2023-02-25T07:41:20.623Z,101705.66
2023-02-25T07:43:24.065Z,101717.00
2023-02-25T07:45:27.268Z,101712.63
2023-02-25T07:47:30.589Z,101712.63
2023-02-25T07:49:33.896Z,101713.56
2023-02-25T07:51:37.153Z,101714.47
2023-02-25T07:53:40.790Z,101723.16
2023-02-25T07:55:44.823Z,101711.78
2023-02-25T07:57:49.482Z,101723.16
2023-02-25T07:59:52.830Z,101723.16
2023-02-25T08:01:56.118Z,101720.53
2023-02-25T08:04:01.275Z,101723.16
2023-02-25T08:06:08.166Z,101731.06
2023-02-25T08:08:11.444Z,101724.03
2023-02-25T08:10:14.660Z,101733.66
2023-02-25T08:12:17.924Z,101738.03
2023-02-25T08:14:22.841Z,101741.50
2023-02-25T08:16:26.216Z,101735.34
2023-02-25T08:18:29.660Z,101741.50
2023-02-25T08:20:32.881Z,101744.13
2023-02-25T08:22:36.123Z,101741.44
2023-02-25T08:24:40.137Z,101751.06
2023-02-25T08:26:43.562Z,101748.38
2023-02-25T08:28:47.548Z,101761.53
2023-02-25T08:30:52.392Z,101758.94
2023-02-25T08:32:57.614Z,101753.66
2023-02-25T08:35:00.869Z,101751.00
2023-02-25T08:37:04.341Z,101757.91
2023-02-25T08:39:09.106Z,101768.31
2023-02-25T08:41:12.877Z,101768.31
2023-02-25T08:43:16.121Z,101763.88
2023-02-25T08:45:20.849Z,101770.84
2023-02-25T08:47:26.136Z,101770.00
2023-02-25T08:49:29.300Z,101771.69
2023-02-25T08:51:38.591Z,101768.94
2023-02-25T08:53:42.715Z,101761.94
2023-02-25T08:55:47.387Z,101767.97
2023-02-25T08:57:50.657Z,101772.16
2023-02-25T08:59:54.010Z,101766.84
2023-02-25T09:01:57.335Z,101763.22
2023-02-25T09:04:01.969Z,101771.06
2023-02-25T09:06:05.988Z,101764.97
2023-02-25T09:08:09.420Z,101765.97
2023-02-25T09:10:14.047Z,101769.66
2023-02-25T09:12:17.357Z,101773.34
2023-02-25T09:14:21.155Z,101780.38
2023-02-25T09:16:24.677Z,101770.91
2023-02-25T09:18:28.051Z,101775.38
2023-02-25T09:20:33.793Z,101776.34
2023-02-25T09:22:38.755Z,101782.59
2023-02-25T09:24:42.290Z,101772.16
2023-02-25T09:26:46.027Z,101776.56
2023-02-25T09:28:49.901Z,101777.44
2023-02-25T09:30:53.495Z,101781.84
2023-02-25T09:32:57.117Z,101776.56
2023-02-25T09:35:05.441Z,101786.13
2023-02-25T09:37:12.621Z,101783.47
2023-02-25T09:39:16.154Z,101782.44
2023-02-25T09:41:29.236Z,101788.50
2023-02-25T09:43:42.311Z,101780.38
2023-02-25T09:45:47.805Z,101781.09
2023-02-25T09:47:55.271Z,101779.00
2023-02-25T09:50:02.479Z,101788.22
2023-02-25T09:52:14.808Z,101780.38
2023-02-25T09:54:24.379Z,101787.19
2023-02-25T09:56:29.175Z,101790.47
2023-02-25T09:58:36.554Z,101795.59
2023-02-25T10:00:44.421Z,101795.66
2023-02-25T10:02:53.940Z,101797.72
2023-02-25T10:05:19.424Z,101799.41
2023-02-25T10:07:28.901Z,101795.81
2023-02-25T10:09:40.374Z,101787.63
2023-02-25T10:11:53.859Z,101795.38
2023-02-25T10:14:06.596Z,101804.94
2023-02-25T10:16:33.758Z,101804.41
2023-02-25T10:18:54.108Z,101795.72
2023-02-25T10:21:09.688Z,101810.06
2023-02-25T10:23:24.741Z,101809.19
2023-02-25T10:25:31.187Z,101810.16
2023-02-25T10:27:39.975Z,101809.53
2023-02-25T10:29:49.671Z,101808.75
2023-02-25T10:31:57.633Z,101810.50
2023-02-25T10:34:15.827Z,101810.31
2023-02-25T10:36:22.705Z,101815.44
2023-02-25T10:38:28.145Z,101813.53
2023-02-25T10:40:32.017Z,101807.97
2023-02-25T10:42:35.741Z,101807.53
2023-02-25T10:44:39.966Z,101808.75
2023-02-25T10:46:51.551Z,101806.34
2023-02-25T10:48:59.331Z,101814.41
2023-02-25T10:51:10.024Z,101813.72
2023-02-25T10:53:16.348Z,101806.94
2023-02-25T10:55:28.820Z,101825.34
2023-02-25T10:57:43.062Z,101826.19
2023-02-25T10:59:48.358Z,101825.81
2023-02-25T11:01:52.811Z,101813.03
2023-02-25T11:04:00.437Z,101808.03
2023-02-25T11:06:14.148Z,101820.72
2023-02-25T11:08:29.025Z,101824.06
2023-02-25T11:10:34.563Z,101829.72
2023-02-25T11:12:42.867Z,101832.78
2023-02-25T11:14:46.678Z,101826.06
2023-02-25T11:16:50.349Z,101821.25
2023-02-25T11:18:57.247Z,101820.47
2023-02-25T11:21:03.904Z,101821.56
2023-02-25T11:23:07.704Z,101822.59
2023-02-25T11:25:19.361Z,101817.66
2023-02-25T11:27:34.211Z,101820.13
2023-02-25T11:29:41.010Z,101816.47
2023-02-25T11:31:45.618Z,101825.44
2023-02-25T11:33:54.710Z,101819.28
2023-02-25T11:36:01.510Z,101824.59
2023-02-25T11:38:17.074Z,101817.69
2023-02-25T11:40:29.225Z,101831.84
2023-02-25T11:42:35.415Z,101825.88
2023-02-25T11:44:44.781Z,101826.69
2023-02-25T11:47:00.451Z,101836.16
2023-02-25T11:49:15.038Z,101837.94
2023-02-25T11:51:27.368Z,101835.28
2023-02-25T11:53:47.996Z,101837.13
2023-02-25T11:56:02.490Z,101841.47
2023-02-25T11:58:18.559Z,101841.53
2023-02-25T12:00:28.320Z,101847.78
2023-02-25T12:02:46.078Z,101851.31
2023-02-25T12:05:14.531Z,101848.56
2023-02-25T12:08:10.104Z,101852.88
2023-02-25T12:10:50.676Z,101844.94
2023-02-25T12:13:26.887Z,101838.69
2023-02-25T12:16:01.326Z,101838.69
2023-02-25T12:18:28.153Z,101841.22
2023-02-25T12:21:04.292Z,101840.91
2023-02-25T12:23:54.370Z,101838.72
2023-02-25T12:26:08.040Z,101835.66
2023-02-25T12:28:45.744Z,101841.69
2023-02-25T12:31:08.336Z,101832.31
2023-02-25T12:33:25.693Z,101835.34
2023-02-25T12:35:49.270Z,101836.75
2023-02-25T12:38:25.439Z,101833.47
2023-02-25T12:40:48.957Z,101835.13
2023-02-25T12:43:08.029Z,101837.28
2023-02-25T12:45:29.565Z,101836.84
2023-02-25T12:47:47.550Z,101840.31
2023-02-25T12:50:16.853Z,101846.63
2023-02-25T12:52:37.907Z,101831.25
2023-02-25T12:54:59.196Z,101840.28
2023-02-25T12:57:19.055Z,101837.75
2023-02-25T12:59:41.578Z,101838.03
2023-02-25T13:01:57.876Z,101826.94
2023-02-25T13:04:38.551Z,101821.97
2023-02-25T13:07:08.003Z,101816.84
2023-02-25T13:09:28.088Z,101823.84
2023-02-25T13:12:10.176Z,101819.22
2023-02-25T13:14:40.923Z,101815.44
2023-02-25T13:16:53.077Z,101815.09
2023-02-25T13:19:16.742Z,101826.28
2023-02-25T13:21:37.432Z,101823.44
2023-02-25T13:24:03.743Z,101821.13
2023-02-25T13:26:26.512Z,101820.53
2023-02-25T13:29:02.105Z,101823.94
2023-02-25T13:31:10.790Z,101817.50
2023-02-25T13:33:46.356Z,101805.72
2023-02-25T13:35:57.760Z,101818.28
2023-02-25T13:38:15.939Z,101817.66
2023-02-25T13:40:31.496Z,101811.59
2023-02-25T13:42:57.119Z,101816.81
2023-02-25T13:45:30.721Z,101817.81
2023-02-25T13:47:47.574Z,101811.59
2023-02-25T13:50:17.149Z,101809.72
2023-02-25T13:52:31.964Z,101804.56
2023-02-25T13:55:08.872Z,101811.66
2023-02-25T13:57:26.555Z,101803.84
2023-02-25T14:00:03.932Z,101810.00
2023-02-25T14:02:27.326Z,101796.88
2023-02-25T14:05:05.941Z,101806.00
2023-02-25T14:07:28.121Z,101799.16
2023-02-25T14:09:39.581Z,101799.28
2023-02-25T14:11:57.785Z,101799.25
2023-02-25T14:14:24.871Z,101803.59
2023-02-25T14:16:48.886Z,101801.16
2023-02-25T14:19:09.205Z,101801.97
2023-02-25T14:21:51.867Z,101805.25
2023-02-25T14:24:01.279Z,101806.97
2023-02-25T14:26:21.193Z,101819.03
2023-02-25T14:28:34.713Z,101813.59
2023-02-25T14:30:50.426Z,101808.06
2023-02-25T14:33:06.756Z,101803.66
2023-02-25T14:35:34.702Z,101810.75
2023-02-25T14:37:47.914Z,101807.38
2023-02-25T14:40:08.772Z,101807.63
2023-02-25T14:42:37.777Z,101800.91
2023-02-25T14:44:46.753Z,101809.84
2023-02-25T14:46:58.699Z,101807.97
2023-02-25T14:49:08.227Z,101805.41
2023-02-25T14:51:48.867Z,101807.06
2023-02-25T14:54:17.156Z,101808.63
2023-02-25T14:56:47.826Z,101807.88
2023-02-25T14:59:26.828Z,101814.22
2023-02-25T15:02:05.064Z,101817.88
2023-02-25T15:04:38.117Z,101809.09
2023-02-25T15:06:58.155Z,101808.13
2023-02-25T15:09:34.841Z,101806.25
2023-02-25T15:11:55.128Z,101805.25
2023-02-25T15:14:23.457Z,101802.47
2023-02-25T15:16:55.824Z,101809.66
2023-02-25T15:19:25.821Z,101814.91
2023-02-25T15:21:49.219Z,101817.69
2023-02-25T15:23:53.420Z,101812.38
2023-02-25T15:26:21.646Z,101809.72
2023-02-25T15:28:43.017Z,101816.47
2023-02-25T15:31:07.432Z,101820.69
2023-02-25T15:33:26.330Z,101813.69
2023-02-25T15:35:55.906Z,101821.78
2023-02-25T15:38:10.082Z,101830.50
2023-02-25T15:40:49.698Z,101824.44
2023-02-25T15:42:55.807Z,101829.88
2023-02-25T15:45:39.756Z,101825.56
2023-02-25T15:47:48.969Z,101820.28
2023-02-25T15:49:53.692Z,101818.44
2023-02-25T15:51:59.499Z,101814.97
2023-02-25T15:54:03.396Z,101814.97
2023-02-25T15:56:32.157Z,101821.00
2023-02-25T15:58:51.652Z,101816.56
2023-02-25T16:00:56.932Z,101818.41
2023-02-25T16:03:03.602Z,101818.50
2023-02-25T16:05:26.169Z,101819.44
2023-02-25T16:07:34.084Z,101816.75
2023-02-25T16:09:42.888Z,101817.69
2023-02-25T16:11:49.538Z,101825.69
2023-02-25T16:13:54.641Z,101822.16
2023-02-25T16:15:58.748Z,101825.72
2023-02-25T16:18:18.673Z,101827.38
2023-02-25T16:20:29.357Z,101827.25
2023-02-25T16:22:33.857Z,101843.03
2023-02-25T16:24:38.535Z,101844.03
2023-02-25T16:26:45.910Z,101850.19
2023-02-25T16:29:00.270Z,101855.50
2023-02-25T16:31:12.995Z,101858.13
2023-02-25T16:33:30.837Z,101854.69
2023-02-25T16:35:40.025Z,101855.63
2023-02-25T16:37:52.644Z,101866.13
2023-02-25T16:39:56.670Z,101855.63
2023-02-25T16:42:06.144Z,101851.25
2023-02-25T16:44:10.281Z,101855.63
2023-02-25T16:46:17.446Z,101857.31
2023-02-25T16:48:29.463Z,101863.50
2023-02-25T16:50:35.591Z,101854.78
2023-02-25T16:52:42.903Z,101867.06
2023-02-25T16:54:48.480Z,101873.22
2023-02-25T16:56:55.840Z,101867.91
2023-02-25T16:59:02.539Z,101875.81
2023-02-25T17:01:07.840Z,101871.41
2023-02-25T17:03:12.604Z,101873.97
2023-02-25T17:05:30.873Z,101881.09
2023-02-25T17:07:38.049Z,101875.84
2023-02-25T17:09:46.577Z,101877.63
2023-02-25T17:11:55.058Z,101879.41
2023-02-25T17:14:06.095Z,101877.59
2023-02-25T17:16:21.346Z,101884.59
2023-02-25T17:18:31.384Z,101876.66
2023-02-25T17:20:37.528Z,101881.00
2023-02-25T17:22:41.991Z,101880.94
2023-02-25T17:24:46.252Z,101883.47
2023-02-25T17:26:53.823Z,101889.59
2023-02-25T17:29:00.454Z,101887.03
2023-02-25T17:31:11.607Z,101882.56
2023-02-25T17:33:26.373Z,101887.97
2023-02-25T17:35:31.016Z,101892.34
2023-02-25T17:37:37.360Z,101888.81
2023-02-25T17:39:44.480Z,101888.91
2023-02-25T17:41:50.055Z,101894.19
2023-02-25T17:43:54.012Z,101893.38
2023-02-25T17:45:59.321Z,101894.25
2023-02-25T17:48:03.642Z,101897.78
2023-02-25T17:50:23.532Z,101893.44
2023-02-25T17:52:31.611Z,101896.13
2023-02-25T17:54:39.126Z,101895.22
2023-02-25T17:56:43.409Z,101903.16
2023-02-25T17:58:49.179Z,101904.09
2023-02-25T18:01:02.886Z,101898.84
2023-02-25T18:03:18.194Z,101904.09
2023-02-25T18:05:27.766Z,101909.34
2023-02-25T18:07:33.094Z,101905.84
2023-02-25T18:09:41.305Z,101911.94
2023-02-25T18:11:46.946Z,101911.97
2023-02-25T18:13:50.772Z,101926.88
2023-02-25T18:16:47.634Z,101930.38
2023-02-25T18:18:52.157Z,101931.13
2023-02-25T18:20:59.547Z,101932.91
2023-02-25T18:23:04.637Z,101934.66
2023-02-25T18:25:30.695Z,101929.41
2023-02-25T18:27:38.138Z,101935.50
2023-02-25T18:29:42.241Z,101937.25
2023-02-25T18:31:46.207Z,101943.38
2023-02-25T18:33:50.975Z,101939.88
2023-02-25T18:35:57.381Z,101951.28
2023-02-25T18:38:02.140Z,101953.00
2023-02-25T18:40:08.243Z,101939.88
2023-02-25T18:42:18.131Z,101949.44
2023-02-25T18:44:21.923Z,101954.72
2023-02-25T18:46:26.310Z,101954.69
2023-02-25T18:48:32.803Z,101951.16
2023-02-25T18:50:36.670Z,101950.22
2023-02-25T18:52:40.759Z,101952.88
2023-02-25T18:54:44.622Z,101949.31
2023-02-25T18:56:48.942Z,101957.25
2023-02-25T18:58:56.962Z,101948.47
2023-02-25T19:01:01.900Z,101953.72
2023-02-25T19:03:10.058Z,101962.41
2023-02-25T19:05:16.122Z,101962.50
2023-02-25T19:07:20.378Z,101965.94
2023-02-25T19:09:25.109Z,101972.91
2023-02-25T19:11:36.284Z,101968.53
2023-02-25T19:13:41.973Z,101972.00
2023-02-25T19:15:50.380Z,101979.00
2023-02-25T19:17:55.022Z,101983.38
2023-02-25T19:20:01.497Z,101981.66
2023-02-25T19:22:05.702Z,101986.03
2023-02-25T19:24:14.091Z,101990.44
2023-02-25T19:26:18.605Z,101992.19
2023-02-25T19:28:23.966Z,101995.69
2023-02-25T19:30:29.457Z,102000.06
2023-02-25T19:32:36.862Z,101997.44
2023-02-25T19:34:42.515Z,102001.78
2023-02-25T19:36:47.158Z,102000.88
2023-02-25T19:38:51.420Z,101990.38
2023-02-25T19:40:56.554Z,101993.88
2023-02-25T19:43:01.646Z,101988.59
2023-02-25T19:45:08.143Z,101992.06
2023-02-25T19:47:13.040Z,101994.72
2023-02-25T19:49:18.792Z,101996.47
2023-02-25T19:51:23.591Z,101999.09
2023-02-25T19:53:28.115Z,101997.34
2023-02-25T19:55:34.028Z,102002.63
2023-02-25T19:57:40.193Z,102003.44
2023-02-25T19:59:45.246Z,102009.59
2023-02-25T20:01:50.011Z,101999.09
2023-02-25T20:03:56.056Z,101994.78
2023-02-25T20:06:07.033Z,102003.50
2023-02-25T20:08:12.527Z,102007.03
2023-02-25T20:10:17.785Z,101999.19
2023-02-25T20:12:22.733Z,102009.63
2023-02-25T20:14:28.746Z,102005.28
2023-02-25T20:16:32.897Z,102014.06
2023-02-25T20:18:37.704Z,102010.53
2023-02-25T20:20:43.628Z,102008.81
2023-02-25T20:22:49.229Z,102013.13
2023-02-25T20:24:54.769Z,102007.88
2023-02-25T20:26:59.589Z,102021.88
2023-02-25T20:29:04.592Z,102017.50
2023-02-25T20:31:10.591Z,102018.34
2023-02-25T20:33:14.800Z,102021.84
2023-02-25T20:35:21.932Z,102024.47
2023-02-25T20:37:31.673Z,102033.22
2023-02-25T20:39:51.743Z,102037.59
2023-02-25T20:41:56.732Z,102035.81
2023-02-25T20:44:01.075Z,102035.81
2023-02-25T20:46:06.036Z,102048.97
2023-02-25T20:48:21.813Z,102048.06
2023-02-25T20:50:30.221Z,102046.34
2023-02-25T20:52:35.062Z,102048.06
2023-02-25T20:54:39.801Z,102048.06
2023-02-25T20:56:45.433Z,102056.78
2023-02-25T20:58:49.716Z,102060.28
2023-02-25T21:00:54.303Z,102046.25
2023-02-25T21:02:58.901Z,102059.44
2023-02-25T21:05:04.457Z,102065.56
2023-02-25T21:07:09.269Z,102060.28
2023-02-25T21:09:13.906Z,102063.81
2023-02-25T21:11:18.426Z,102062.03
2023-02-25T21:13:24.250Z,102079.50
2023-02-25T21:15:28.897Z,102075.13
2023-02-25T21:17:33.502Z,102076.88
2023-02-25T21:19:39.134Z,102078.66
2023-02-25T21:21:44.067Z,102084.81
2023-02-25T21:23:49.523Z,102086.53
2023-02-25T21:25:54.412Z,102087.44
2023-02-25T21:27:59.813Z,102086.53
2023-02-25T21:30:06.782Z,102087.44
2023-02-25T21:32:11.220Z,102095.31
2023-02-25T21:34:15.078Z,102088.31
2023-02-25T21:36:19.519Z,102093.59
2023-02-25T21:38:24.547Z,102094.47
2023-02-25T21:40:28.878Z,102098.84
2023-02-25T21:42:35.757Z,102092.69
2023-02-25T21:44:39.856Z,102099.72
2023-02-25T21:46:45.270Z,102096.19
2023-02-25T21:48:51.149Z,102102.28
2023-02-25T21:50:56.301Z,102104.03
2023-02-25T21:53:01.509Z,102102.31
2023-02-25T21:55:05.508Z,102097.91
2023-02-25T21:57:10.458Z,102105.81
2023-02-25T21:59:14.483Z,102111.88
2023-02-25T22:01:20.070Z,102104.78
2023-02-25T22:03:26.100Z,102115.31
2023-02-25T22:05:30.312Z,102108.31
2023-02-25T22:07:35.219Z,102109.16
2023-02-25T22:09:39.764Z,102104.78
2023-02-25T22:11:45.080Z,102108.31
2023-02-25T22:13:51.240Z,102107.38
2023-02-25T22:15:55.298Z,102107.41
2023-02-25T22:18:00.791Z,102110.06
2023-02-25T22:20:08.117Z,102116.19
2023-02-25T22:22:14.939Z,102110.00
2023-02-25T22:24:19.800Z,102114.41
2023-02-25T22:26:27.360Z,102111.75
2023-02-25T22:28:32.073Z,102117.00
2023-02-25T22:30:37.818Z,102121.41
2023-02-25T22:32:42.404Z,102119.63
2023-02-25T22:34:46.499Z,102128.38
2023-02-25T22:36:54.087Z,102124.00
2023-02-25T22:38:58.464Z,102131.00
2023-02-25T22:41:02.569Z,102133.63
2023-02-25T22:43:06.346Z,102132.72
2023-02-25T22:45:11.396Z,102137.13
2023-02-25T22:47:15.288Z,102137.13
2023-02-25T22:49:19.352Z,102142.38
2023-02-25T22:51:27.016Z,102142.38
2023-02-25T22:53:31.981Z,102137.94
2023-02-25T22:55:37.396Z,102141.47
2023-02-25T22:57:44.162Z,102146.75
2023-02-25T22:59:48.724Z,102151.16
2023-02-25T23:01:53.242Z,102152.09
2023-02-25T23:03:57.906Z,102152.22
2023-02-25T23:06:02.423Z,102147.06
2023-02-25T23:08:07.083Z,102147.06
2023-02-25T23:10:13.305Z,102144.44
2023-02-25T23:12:17.302Z,102152.31
2023-02-25T23:14:20.933Z,102159.31
2023-02-25T23:16:26.966Z,102162.03
2023-02-25T23:18:31.799Z,102157.69
2023-02-25T23:20:37.271Z,102159.47
2023-02-25T23:22:40.626Z,102163.97
2023-02-25T23:24:44.414Z,102162.28
2023-02-25T23:26:53.759Z,102155.28
2023-02-25T23:28:58.778Z,102151.84
2023-02-25T23:31:02.372Z,102155.28
2023-02-25T23:33:06.421Z,102153.50
2023-02-25T23:35:12.455Z,102161.41
2023-02-25T23:37:16.145Z,102162.22
2023-02-25T23:39:19.813Z,102165.66
2023-02-25T23:41:23.812Z,102172.63
2023-02-25T23:43:29.055Z,102178.69
2023-02-25T23:45:33.019Z,102183.06
2023-02-25T23:47:38.578Z,102184.75
2023-02-25T23:49:42.305Z,102182.94
2023-02-25T23:51:48.076Z,102185.53
2023-02-25T23:53:54.436Z,102181.13
2023-02-25T23:55:58.115Z,102189.03
2023-02-25T23:58:01.820Z,102188.97
